Time;durP1;ratioP1;P1;durP2;ratioP2;P2;SDS_P1;SDS_P2;PMS_P1;PMS_P2;Temp;Humidity;BMP_temperature;BMP_pressure;BME280_temperature;BME280_humidity;BME280_pressure;Samples;Min_cycle;Max_cycle;Signal;HPM_P1;HPM_P2
2023/06/06 00:01:55;;;;;;;2.67;2.23;;;18.40;63.50;;;;;;4947871;28;20192;-70
2023/06/06 00:04:21;;;;;;;5.13;2.30;;;18.30;63.90;;;;;;4947859;28;20217;-69
2023/06/06 00:06:47;;;;;;;6.10;3.63;;;18.30;64.20;;;;;;4947413;28;20214;-70
2023/06/06 00:09:13;;;;;;;2.17;1.90;;;18.10;64.80;;;;;;4946379;28;20294;-70
2023/06/06 00:11:39;;;;;;;2.23;2.03;;;18.10;65.10;;;;;;4948949;28;20202;-70
2023/06/06 00:14:07;;;;;;;2.17;1.97;;;18.10;65.20;;;;;;4947889;28;20242;-71
2023/06/06 00:16:34;;;;;;;2.73;2.00;;;18.10;65.30;;;;;;4945775;28;20260;-70
2023/06/06 00:19:00;;;;;;;6.23;2.10;;;18.10;65.70;;;;;;4950469;28;20563;-70
2023/06/06 00:21:26;;;;;;;1.90;1.70;;;18.10;65.30;;;;;;4944164;28;20247;-70
2023/06/06 00:23:52;;;;;;;2.43;2.23;;;18.10;65.50;;;;;;4947677;28;20240;-70
2023/06/06 00:26:17;;;;;;;2.00;1.80;;;18.00;66.00;;;;;;4947697;28;20207;-70
2023/06/06 00:28:43;;;;;;;3.17;2.10;;;17.80;66.10;;;;;;4958819;28;20699;-71
2023/06/06 00:31:08;;;;;;;5.13;2.00;;;17.80;66.90;;;;;;4957612;28;20198;-70
2023/06/06 00:33:34;;;;;;;3.43;2.47;;;17.80;66.90;;;;;;4956861;28;22198;-69
2023/06/06 00:35:59;;;;;;;2.50;2.27;;;17.80;66.90;;;;;;4941209;28;20286;-70
2023/06/06 00:38:25;;;;;;;3.50;1.70;;;17.80;66.80;;;;;;4958816;28;20757;-77
2023/06/06 00:40:51;;;;;;;2.00;1.80;;;17.70;67.00;;;;;;4941226;28;20708;-67
2023/06/06 00:43:16;;;;;;;3.73;1.97;;;17.70;67.30;;;;;;4958299;28;20291;-68
2023/06/06 00:45:41;;;;;;;3.10;2.30;;;17.80;67.60;;;;;;4958543;28;20207;-68
2023/06/06 00:48:07;;;;;;;3.93;2.60;;;17.70;67.20;;;;;;4952897;28;20290;-68
2023/06/06 00:50:34;;;;;;;2.13;1.90;;;17.70;67.30;;;;;;4948026;28;20203;-66
2023/06/06 00:53:01;;;;;;;3.27;2.40;;;17.60;67.70;;;;;;4952503;28;20204;-68
2023/06/06 00:55:27;;;;;;;2.93;2.13;;;17.60;68.20;;;;;;4947634;28;20301;-69
2023/06/06 00:57:52;;;;;;;2.70;2.03;;;17.50;68.10;;;;;;4954507;28;20686;-69
2023/06/06 01:00:18;;;;;;;6.47;1.80;;;17.50;68.20;;;;;;4944229;28;20695;-70
2023/06/06 01:02:47;;;;;;;4.43;2.83;;;17.50;68.30;;;;;;4932427;28;20736;-68
2023/06/06 01:05:15;;;;;;;2.93;2.17;;;17.50;69.40;;;;;;4952023;28;20212;-68
2023/06/06 01:07:42;;;;;;;2.70;1.70;;;17.40;69.10;;;;;;4955471;28;20242;-68
2023/06/06 01:10:09;;;;;;;2.37;1.73;;;17.30;69.20;;;;;;4956252;28;20214;-68
2023/06/06 01:12:59;;;;;;;2.53;2.20;;;17.30;69.10;;;;;;4930671;28;20289;-68
2023/06/06 01:15:36;;;;;;;3.37;1.80;;;17.30;69.70;;;;;;4957802;28;20222;-69
2023/06/06 01:18:03;;;;;;;2.70;2.17;;;17.30;69.50;;;;;;4950063;28;20198;-72
2023/06/06 01:20:30;;;;;;;2.53;1.80;;;17.30;69.20;;;;;;4945453;28;20211;-70
2023/06/06 01:22:57;;;;;;;2.33;2.13;;;17.40;69.00;;;;;;4948117;28;20598;-69
2023/06/06 01:25:25;;;;;;;2.53;2.27;;;17.30;69.00;;;;;;4949386;28;20221;-69
2023/06/06 01:27:53;;;;;;;3.47;2.10;;;17.30;69.20;;;;;;4925862;28;20289;-69
2023/06/06 01:30:21;;;;;;;2.90;1.67;;;17.20;69.70;;;;;;4946544;28;20279;-69
2023/06/06 01:32:57;;;;;;;3.53;1.83;;;17.20;69.90;;;;;;4957897;28;20715;-69
2023/06/06 01:35:39;;;;;;;2.67;2.00;;;17.20;69.50;;;;;;4957733;28;20433;-68
2023/06/06 01:38:36;;;;;;;4.77;2.20;;;17.20;69.50;;;;;;4957747;28;20259;-69
2023/06/06 01:41:03;;;;;;;3.03;1.83;;;17.20;69.60;;;;;;4956427;28;20265;-70
2023/06/06 01:43:31;;;;;;;2.30;1.97;;;17.10;69.60;;;;;;4957101;28;20202;-69
2023/06/06 01:45:57;;;;;;;3.33;1.90;;;17.00;70.30;;;;;;4955137;28;20203;-69
2023/06/06 01:48:24;;;;;;;2.53;1.97;;;17.00;70.60;;;;;;4956642;28;20205;-70
2023/06/06 01:50:50;;;;;;;2.47;2.27;;;17.00;70.70;;;;;;4939443;28;20223;-70
2023/06/06 01:53:16;;;;;;;1.93;1.77;;;16.90;71.10;;;;;;4957372;28;20290;-69
2023/06/06 01:55:41;;;;;;;2.73;2.00;;;17.00;70.80;;;;;;4956926;28;20589;-69
2023/06/06 01:58:08;;;;;;;4.10;2.70;;;17.00;70.50;;;;;;4956843;28;20245;-72
2023/06/06 02:00:33;;;;;;;5.33;2.23;;;17.00;70.70;;;;;;4955860;28;20237;-71
2023/06/06 02:02:59;;;;;;;2.90;2.00;;;16.80;70.70;;;;;;4956506;28;20715;-71
2023/06/06 02:05:24;;;;;;;2.40;2.20;;;16.80;70.80;;;;;;4956772;28;20266;-64
2023/06/06 02:07:51;;;;;;;2.50;2.30;;;16.80;70.90;;;;;;4957221;28;20214;-64
2023/06/06 02:10:17;;;;;;;2.33;1.70;;;16.80;71.60;;;;;;4956944;28;20198;-64
2023/06/06 02:12:42;;;;;;;2.43;1.80;;;16.70;72.20;;;;;;4955160;28;20699;-64
2023/06/06 02:15:10;;;;;;;3.57;2.10;;;16.60;72.10;;;;;;4956600;28;21051;-64
2023/06/06 02:17:36;;;;;;;2.40;2.20;;;16.60;72.10;;;;;;4951725;28;20202;-64
2023/06/06 02:20:04;;;;;;;3.53;2.07;;;16.60;72.10;;;;;;4950746;28;20198;-64
2023/06/06 02:22:30;;;;;;;2.97;2.40;;;16.60;71.80;;;;;;4951657;28;20211;-64
2023/06/06 02:24:55;;;;;;;3.60;2.00;;;16.60;71.60;;;;;;4951414;28;20205;-65
2023/06/06 02:27:21;;;;;;;2.90;2.40;;;16.70;71.60;;;;;;4961319;28;20296;-63
2023/06/06 02:29:46;;;;;;;3.17;2.00;;;16.70;71.80;;;;;;4961343;28;20211;-64
2023/06/06 02:32:12;;;;;;;3.13;2.40;;;16.60;72.10;;;;;;4955777;28;20211;-64
2023/06/06 02:34:37;;;;;;;5.87;2.77;;;16.50;72.80;;;;;;4950891;28;20266;-64
2023/06/06 02:37:06;;;;;;;7.47;2.43;;;16.50;73.00;;;;;;4951840;28;20641;-64
2023/06/06 02:39:35;;;;;;;3.17;2.10;;;16.50;73.20;;;;;;4945635;28;20207;-64
2023/06/06 02:42:05;;;;;;;2.23;2.00;;;16.50;72.80;;;;;;4958267;28;20229;-66
2023/06/06 02:44:30;;;;;;;2.33;2.00;;;16.50;72.80;;;;;;4950190;28;20215;-64
2023/06/06 02:46:57;;;;;;;3.47;1.80;;;16.50;72.90;;;;;;4960148;28;20201;-64
2023/06/06 02:49:22;;;;;;;2.60;2.27;;;16.50;72.60;;;;;;4958807;28;20205;-64
2023/06/06 02:51:48;;;;;;;3.53;2.43;;;16.60;72.50;;;;;;4960885;28;20261;-64
2023/06/06 02:54:13;;;;;;;2.43;2.23;;;16.60;72.50;;;;;;4961029;28;20244;-64
2023/06/06 02:56:39;;;;;;;3.53;2.30;;;16.50;73.20;;;;;;4960852;28;20281;-64
2023/06/06 02:59:07;;;;;;;2.50;2.10;;;16.50;72.90;;;;;;4961058;28;20658;-64
2023/06/06 03:01:33;;;;;;;4.40;2.10;;;16.40;73.10;;;;;;4958707;28;20285;-64
2023/06/06 03:03:59;;;;;;;4.33;2.57;;;16.40;73.10;;;;;;4957039;28;20675;-63
2023/06/06 03:06:24;;;;;;;5.33;3.10;;;16.30;73.60;;;;;;4960766;28;20206;-63
2023/06/06 03:08:55;;;;;;;3.00;2.40;;;16.30;74.10;;;;;;4961011;28;20282;-63
2023/06/06 03:11:21;;;;;;;2.50;2.30;;;16.30;73.90;;;;;;4960903;28;20260;-63
2023/06/06 03:13:46;;;;;;;3.87;2.23;;;16.40;74.00;;;;;;4960195;28;20217;-63
2023/06/06 03:16:15;;;;;;;3.47;2.60;;;16.30;74.10;;;;;;4960827;28;20686;-63
2023/06/06 03:18:41;;;;;;;2.57;2.37;;;16.10;74.80;;;;;;4960305;28;20191;-63
2023/06/06 03:21:07;;;;;;;3.47;2.03;;;16.10;75.00;;;;;;4957281;28;20222;-64
2023/06/06 03:23:33;;;;;;;2.13;1.80;;;16.10;75.30;;;;;;4960072;28;20332;-64
2023/06/06 03:25:58;;;;;;;2.70;2.03;;;16.10;75.50;;;;;;4959845;28;20202;-63
2023/06/06 03:28:23;;;;;;;4.57;2.40;;;16.20;76.00;;;;;;4960599;28;20208;-63
2023/06/06 03:30:49;;;;;;;3.50;2.03;;;16.20;75.60;;;;;;4959984;28;20198;-64
2023/06/06 03:33:15;;;;;;;5.03;1.97;;;16.10;75.90;;;;;;4960594;28;20218;-64
2023/06/06 03:35:41;;;;;;;5.33;2.67;;;16.10;76.30;;;;;;4957008;28;20696;-64
2023/06/06 03:38:07;;;;;;;3.97;2.20;;;16.10;76.40;;;;;;4960578;28;20297;-64
2023/06/06 03:40:33;;;;;;;2.40;2.00;;;16.20;75.90;;;;;;4960064;28;20285;-63
2023/06/06 03:42:58;;;;;;;2.77;2.20;;;16.00;76.50;;;;;;4960337;28;20212;-64
2023/06/06 03:45:24;;;;;;;2.23;1.90;;;16.10;75.80;;;;;;4955440;28;20277;-63
2023/06/06 03:47:50;;;;;;;7.17;2.83;;;16.20;75.40;;;;;;4958105;28;20393;-64
2023/06/06 03:50:16;;;;;;;6.10;2.80;;;16.20;75.90;;;;;;4959781;28;21031;-63
2023/06/06 03:52:42;;;;;;;2.83;2.50;;;16.10;76.00;;;;;;4959732;28;20211;-63
2023/06/06 03:55:09;;;;;;;3.80;2.67;;;16.10;75.80;;;;;;4959748;28;20205;-63
2023/06/06 03:57:35;;;;;;;4.10;3.00;;;16.10;76.00;;;;;;4958564;28;20681;-63
2023/06/06 04:00:04;;;;;;;3.23;2.30;;;16.10;75.90;;;;;;4939361;28;20309;-64
2023/06/06 04:02:31;;;;;;;3.20;2.33;;;16.10;75.60;;;;;;4959456;28;20194;-63
2023/06/06 04:05:01;;;;;;;6.17;2.73;;;16.10;75.60;;;;;;4959748;28;20210;-64
2023/06/06 04:07:28;;;;;;;2.83;2.43;;;16.10;76.10;;;;;;4959254;28;20218;-63
2023/06/06 04:09:54;;;;;;;5.90;2.53;;;16.10;76.20;;;;;;4956431;28;20748;-64
2023/06/06 04:12:20;;;;;;;4.30;2.47;;;16.20;75.90;;;;;;4949847;28;20213;-64
2023/06/06 04:14:47;;;;;;;3.47;2.53;;;16.10;76.00;;;;;;4958730;28;20219;-63
2023/06/06 04:17:13;;;;;;;3.63;2.17;;;16.10;76.30;;;;;;4959176;28;20217;-63
2023/06/06 04:19:38;;;;;;;4.23;2.60;;;16.20;75.90;;;;;;4958682;28;20587;-63
2023/06/06 04:22:05;;;;;;;3.80;3.30;;;16.10;76.10;;;;;;4944773;28;20198;-64
2023/06/06 04:24:31;;;;;;;4.10;2.80;;;16.10;76.60;;;;;;4958865;28;20226;-64
2023/06/06 04:26:57;;;;;;;3.53;2.70;;;16.20;76.50;;;;;;4959176;28;20739;-64
2023/06/06 04:29:26;;;;;;;4.10;2.50;;;16.30;76.60;;;;;;4959013;28;20229;-63
2023/06/06 04:31:52;;;;;;;3.90;2.13;;;16.40;76.40;;;;;;4952653;28;20216;-64
2023/06/06 04:34:23;;;;;;;2.40;2.20;;;16.40;76.30;;;;;;4958636;28;20706;-64
2023/06/06 04:36:51;;;;;;;2.87;2.47;;;16.30;76.70;;;;;;4958298;28;20427;-63
2023/06/06 04:39:19;;;;;;;2.27;2.07;;;16.50;75.50;;;;;;4958845;28;20261;-63
2023/06/06 04:41:45;;;;;;;2.73;2.23;;;16.50;75.30;;;;;;4957046;28;20212;-63
2023/06/06 04:44:10;;;;;;;4.63;2.13;;;16.50;75.90;;;;;;4958902;28;20197;-63
2023/06/06 04:46:36;;;;;;;3.53;2.40;;;16.60;75.90;;;;;;4958757;28;20214;-63
2023/06/06 04:49:01;;;;;;;13.23;2.73;;;16.60;75.50;;;;;;4958739;28;20209;-63
2023/06/06 04:51:33;;;;;;;2.63;2.43;;;16.60;75.60;;;;;;4958509;28;20649;-63
2023/06/06 04:54:00;;;;;;;2.63;2.37;;;16.40;75.90;;;;;;4952354;28;20640;-63
2023/06/06 04:56:30;;;;;;;4.17;2.33;;;16.40;76.60;;;;;;4958631;28;20209;-64
2023/06/06 04:59:05;;;;;;;4.67;2.60;;;16.40;76.10;;;;;;4958244;28;20272;-62
2023/06/06 05:01:34;;;;;;;6.30;2.60;;;16.40;76.30;;;;;;4955700;28;20256;-63
2023/06/06 05:03:59;;;;;;;4.70;2.83;;;16.60;76.90;;;;;;4958436;28;20203;-63
2023/06/06 05:06:27;;;;;;;2.77;2.57;;;16.60;76.70;;;;;;4958305;28;20216;-62
2023/06/06 05:08:54;;;;;;;3.57;2.53;;;16.60;75.90;;;;;;4958369;28;20217;-62
2023/06/06 05:11:20;;;;;;;6.63;2.50;;;16.60;76.80;;;;;;4941286;28;20218;-62
2023/06/06 05:13:45;;;;;;;5.20;2.67;;;16.80;76.40;;;;;;4956435;28;20210;-63
2023/06/06 05:16:11;;;;;;;2.93;2.73;;;16.90;75.00;;;;;;4958502;28;20267;-62
2023/06/06 05:18:36;;;;;;;5.60;2.57;;;17.00;75.30;;;;;;4958144;28;20205;-63
2023/06/06 05:21:03;;;;;;;5.37;2.70;;;17.10;75.90;;;;;;4957995;28;20393;-62
2023/06/06 05:23:29;;;;;;;4.03;2.07;;;17.20;75.70;;;;;;4956031;28;20253;-63
2023/06/06 05:25:57;;;;;;;6.97;2.17;;;17.20;75.30;;;;;;4945892;28;20202;-63
2023/06/06 05:28:23;;;;;;;6.17;2.33;;;17.20;74.80;;;;;;4958072;28;20573;-63
2023/06/06 05:30:49;;;;;;;2.57;2.20;;;17.30;75.00;;;;;;4958000;28;20209;-63
2023/06/06 05:33:15;;;;;;;3.27;2.00;;;17.40;74.40;;;;;;4956108;28;20206;-63
2023/06/06 05:35:40;;;;;;;6.13;2.37;;;17.50;73.50;;;;;;4957836;28;20688;-64
2023/06/06 05:38:06;;;;;;;7.93;3.10;;;17.50;74.10;;;;;;4958068;28;20230;-63
2023/06/06 05:40:31;;;;;;;2.90;1.93;;;17.70;74.70;;;;;;4957641;28;20214;-62
2023/06/06 05:42:57;;;;;;;6.80;2.67;;;17.80;73.70;;;;;;4958368;28;20194;-63
2023/06/06 05:45:22;;;;;;;2.83;1.87;;;17.90;73.90;;;;;;4957956;28;20210;-62
2023/06/06 05:47:48;;;;;;;2.70;2.50;;;17.90;73.60;;;;;;4957094;28;20242;-62
2023/06/06 05:50:14;;;;;;;6.83;2.37;;;18.00;73.40;;;;;;4961467;28;20569;-64
2023/06/06 05:52:39;;;;;;;5.07;2.37;;;18.10;73.10;;;;;;4942898;28;20237;-63
2023/06/06 05:55:05;;;;;;;3.57;2.63;;;18.30;72.10;;;;;;4961808;28;20222;-63
2023/06/06 05:57:31;;;;;;;2.63;2.43;;;18.40;71.70;;;;;;4961084;28;20574;-63
2023/06/06 06:00:00;;;;;;;5.23;3.23;;;18.50;71.90;;;;;;4961574;28;20197;-63
2023/06/06 06:02:28;;;;;;;7.40;2.73;;;18.70;70.50;;;;;;4962153;28;20943;-63
2023/06/06 06:04:56;;;;;;;9.57;6.50;;;18.70;70.70;;;;;;4961817;28;20206;-63
2023/06/06 06:07:22;;;;;;;5.03;3.53;;;18.80;70.10;;;;;;4961745;28;20859;-63
2023/06/06 06:09:47;;;;;;;6.43;2.73;;;18.90;70.30;;;;;;4961368;28;20204;-63
2023/06/06 06:12:13;;;;;;;3.23;2.47;;;19.10;68.30;;;;;;4959796;28;20194;-63
2023/06/06 06:14:38;;;;;;;2.47;2.27;;;19.20;68.00;;;;;;4961338;28;20226;-63
2023/06/06 06:17:04;;;;;;;9.63;3.10;;;19.30;65.60;;;;;;4957069;28;20207;-63
2023/06/06 06:19:29;;;;;;;6.73;2.67;;;19.40;64.60;;;;;;4961366;28;20208;-64
2023/06/06 06:21:55;;;;;;;5.77;3.00;;;19.40;66.00;;;;;;4961281;28;20216;-63
2023/06/06 06:24:20;;;;;;;5.60;2.57;;;19.40;65.30;;;;;;4960431;28;20243;-63
2023/06/06 06:26:46;;;;;;;3.20;2.73;;;19.60;65.00;;;;;;4954488;28;20749;-63
2023/06/06 06:29:11;;;;;;;3.60;2.50;;;19.60;64.30;;;;;;4959487;28;20649;-63
2023/06/06 06:31:37;;;;;;;5.00;2.63;;;19.70;63.40;;;;;;4956637;28;20201;-64
2023/06/06 06:34:02;;;;;;;3.50;3.20;;;19.70;63.10;;;;;;4961292;28;20303;-64
2023/06/06 06:36:28;;;;;;;4.30;2.70;;;19.70;62.90;;;;;;4956551;28;20197;-64
2023/06/06 06:38:53;;;;;;;4.67;2.87;;;19.70;64.00;;;;;;4959662;28;20235;-64
2023/06/06 06:41:19;;;;;;;6.07;3.20;;;19.70;64.40;;;;;;4961242;28;20816;-64
2023/06/06 06:43:44;;;;;;;5.13;2.53;;;19.80;65.20;;;;;;4961045;28;20208;-64
2023/06/06 06:46:10;;;;;;;5.63;2.73;;;19.90;62.40;;;;;;4956486;28;20262;-64
2023/06/06 06:48:35;;;;;;;8.27;2.90;;;20.00;62.00;;;;;;4960970;28;20203;-64
2023/06/06 06:51:01;;;;;;;5.63;2.67;;;20.00;63.20;;;;;;4960955;28;20200;-63
2023/06/06 06:53:30;;;;;;;4.10;2.53;;;20.10;63.00;;;;;;4958869;28;20739;-63
2023/06/06 06:55:55;;;;;;;4.20;2.80;;;20.20;63.10;;;;;;4949852;28;20314;-63
2023/06/06 06:58:33;;;;;;;9.20;2.77;;;20.30;61.50;;;;;;4951507;28;20304;-63
2023/06/06 07:01:01;;;;;;;2.87;2.67;;;20.40;61.70;;;;;;4949212;28;20288;-64
2023/06/06 07:03:27;;;;;;;6.53;3.07;;;20.40;62.00;;;;;;4946257;28;20229;-63
2023/06/06 07:05:54;;;;;;;7.03;2.90;;;20.30;62.10;;;;;;4950631;28;20259;-64
2023/06/06 07:08:19;;;;;;;4.20;2.97;;;20.40;62.10;;;;;;4950451;28;21140;-63
2023/06/06 07:10:45;;;;;;;3.67;2.20;;;20.40;62.20;;;;;;4936562;28;20202;-64
2023/06/06 07:13:13;;;;;;;5.83;2.47;;;20.40;62.40;;;;;;4947299;28;20219;-64
2023/06/06 07:15:38;;;;;;;6.73;2.63;;;20.30;62.30;;;;;;4950104;28;20233;-62
2023/06/06 07:18:04;;;;;;;8.20;2.57;;;20.40;61.80;;;;;;4953814;28;20197;-64
2023/06/06 07:20:30;;;;;;;4.97;2.53;;;20.40;62.70;;;;;;4948380;28;20233;-63
2023/06/06 07:22:56;;;;;;;14.60;3.63;;;20.40;63.30;;;;;;4951024;28;20308;-64
2023/06/06 07:25:22;;;;;;;7.07;2.87;;;20.40;63.00;;;;;;4950389;28;20218;-63
2023/06/06 07:27:48;;;;;;;5.67;2.80;;;20.40;62.90;;;;;;4956431;28;20208;-62
2023/06/06 07:30:14;;;;;;;5.13;3.00;;;20.50;60.90;;;;;;4959338;28;20588;-63
2023/06/06 07:32:43;;;;;;;4.60;2.50;;;20.60;60.60;;;;;;4960028;28;20255;-63
2023/06/06 07:35:11;;;;;;;3.73;3.00;;;20.60;60.80;;;;;;4959824;28;20220;-63
2023/06/06 07:37:37;;;;;;;3.20;2.40;;;20.60;60.20;;;;;;4959798;28;20197;-63
2023/06/06 07:40:07;;;;;;;3.17;2.87;;;20.60;60.70;;;;;;4958981;28;20567;-63
2023/06/06 07:42:33;;;;;;;5.97;3.10;;;20.70;62.50;;;;;;4955450;28;20225;-64
2023/06/06 07:44:58;;;;;;;5.90;2.70;;;20.80;61.90;;;;;;4959802;28;20245;-63
2023/06/06 07:47:24;;;;;;;3.07;2.83;;;20.90;62.80;;;;;;4960038;28;20247;-64
2023/06/06 07:49:53;;;;;;;5.50;3.10;;;21.00;62.60;;;;;;4957723;28;20203;-66
2023/06/06 07:52:18;;;;;;;4.73;2.90;;;21.10;61.90;;;;;;4958546;28;20201;-63
2023/06/06 07:54:44;;;;;;;5.33;2.53;;;21.10;63.60;;;;;;4947982;28;20221;-63
2023/06/06 07:57:11;;;;;;;3.27;2.77;;;21.10;61.80;;;;;;4947214;28;20201;-65
2023/06/06 07:59:37;;;;;;;5.03;3.17;;;21.30;62.10;;;;;;4948754;28;20235;-65
2023/06/06 08:02:04;;;;;;;7.33;3.70;;;21.50;61.40;;;;;;4953358;28;20202;-64
2023/06/06 08:04:29;;;;;;;5.30;3.07;;;21.20;60.10;;;;;;4959428;28;20718;-64
2023/06/06 08:06:55;;;;;;;7.20;2.90;;;21.20;60.20;;;;;;4950890;28;20201;-66
2023/06/06 08:09:20;;;;;;;4.97;2.53;;;21.30;60.00;;;;;;4959323;28;20213;-72
2023/06/06 08:11:46;;;;;;;7.23;3.50;;;21.50;60.10;;;;;;4959056;28;20201;-71
2023/06/06 08:14:11;;;;;;;4.53;2.90;;;21.50;62.50;;;;;;4959244;28;20224;-72
2023/06/06 08:16:37;;;;;;;5.27;3.03;;;21.50;62.20;;;;;;4957392;28;20275;-71
2023/06/06 08:19:04;;;;;;;7.27;2.90;;;21.60;61.70;;;;;;4959050;28;20205;-69
2023/06/06 08:21:29;;;;;;;6.50;3.40;;;21.70;61.50;;;;;;4958112;28;20291;-69
2023/06/06 08:23:57;;;;;;;5.07;2.83;;;21.90;61.50;;;;;;4954478;28;20835;-69
2023/06/06 08:26:25;;;;;;;3.22;2.63;;;21.80;61.70;;;;;;4954957;28;20301;-69
2023/06/06 08:28:51;;;;;;;6.53;2.90;;;21.90;61.80;;;;;;4956919;28;20775;-72
2023/06/06 08:31:16;;;;;;;9.50;3.53;;;22.00;61.40;;;;;;4959089;28;20236;-72
2023/06/06 08:33:42;;;;;;;7.23;3.10;;;22.00;61.80;;;;;;4956532;28;20241;-72
2023/06/06 08:36:08;;;;;;;2.73;2.53;;;22.10;61.30;;;;;;4945330;28;21030;-69
2023/06/06 08:38:34;;;;;;;8.90;2.60;;;22.20;61.90;;;;;;4956777;28;20293;-71
2023/06/06 08:41:00;;;;;;;6.53;3.13;;;22.30;61.40;;;;;;4956673;28;20273;-73
2023/06/06 08:43:27;;;;;;;10.40;3.23;;;22.40;59.30;;;;;;4954691;28;20677;-69
2023/06/06 08:45:56;;;;;;;3.90;3.33;;;22.40;59.30;;;;;;4953972;28;20296;-68
2023/06/06 08:48:25;;;;;;;5.17;3.07;;;22.40;60.00;;;;;;4949696;28;20305;-70
2023/06/06 08:50:52;;;;;;;8.77;4.07;;;22.40;59.30;;;;;;4958440;28;20212;-69
2023/06/06 08:53:18;;;;;;;5.67;3.50;;;22.50;59.10;;;;;;4949767;28;20713;-69
2023/06/06 08:55:45;;;;;;;8.37;3.57;;;22.50;59.30;;;;;;4945413;28;20217;-70
2023/06/06 08:58:11;;;;;;;4.37;2.90;;;22.70;58.40;;;;;;4942167;28;20208;-69
2023/06/06 09:00:37;;;;;;;8.63;3.27;;;22.50;58.80;;;;;;4942416;28;20232;-69
2023/06/06 09:03:06;;;;;;;7.23;3.37;;;22.60;58.10;;;;;;4943154;28;20311;-69
2023/06/06 09:05:32;;;;;;;8.60;4.63;;;22.70;59.90;;;;;;4945855;28;20293;-70
2023/06/06 09:07:58;;;;;;;3.63;3.33;;;22.90;58.60;;;;;;4945141;28;20209;-69
2023/06/06 09:10:24;;;;;;;6.90;3.33;;;22.80;57.70;;;;;;4944680;28;20210;-68
2023/06/06 09:12:49;;;;;;;5.50;3.70;;;22.70;57.60;;;;;;4942641;28;20279;-68
2023/06/06 09:15:16;;;;;;;8.18;4.50;;;22.70;58.50;;;;;;4955419;28;20217;-71
2023/06/06 09:17:44;;;;;;;4.97;3.90;;;22.80;60.30;;;;;;4958285;28;20677;-71
2023/06/06 09:20:12;;;;;;;11.50;6.83;;;22.90;59.30;;;;;;4958222;28;20213;-71
2023/06/06 09:22:39;;;;;;;6.67;3.30;;;23.00;60.00;;;;;;4955554;28;20679;-71
2023/06/06 09:25:05;;;;;;;7.97;3.60;;;23.10;58.10;;;;;;4958104;28;20684;-69
2023/06/06 09:27:31;;;;;;;5.90;3.80;;;23.00;58.10;;;;;;4958193;28;20688;-72
2023/06/06 09:29:57;;;;;;;8.07;4.40;;;23.20;58.10;;;;;;4946638;28;20213;-70
2023/06/06 09:32:29;;;;;;;6.85;4.00;;;23.30;57.60;;;;;;4941191;28;20213;-69
2023/06/06 09:35:05;;;;;;;9.13;3.33;;;23.10;57.70;;;;;;4940004;28;20257;-70
2023/06/06 09:37:31;;;;;;;9.07;3.70;;;22.90;58.00;;;;;;4938969;28;20205;-70
2023/06/06 09:40:11;;;;;;;5.68;3.60;;;22.80;59.00;;;;;;4941736;28;20194;-70
2023/06/06 09:42:37;;;;;;;4.73;3.03;;;22.90;57.60;;;;;;4955149;28;20205;-69
2023/06/06 09:45:18;;;;;;;18.10;4.00;;;22.90;59.00;;;;;;4958513;28;20245;-69
2023/06/06 09:47:47;;;;;;;5.97;3.88;;;23.10;59.00;;;;;;4958278;28;20256;-69
2023/06/06 09:50:15;;;;;;;9.23;3.95;;;23.30;58.10;;;;;;4957950;28;20197;-68
2023/06/06 09:52:41;;;;;;;7.18;3.58;;;23.30;60.60;;;;;;4957628;28;20312;-69
2023/06/06 09:55:11;;;;;;;6.45;3.67;;;23.40;58.50;;;;;;4957460;28;20762;-69
2023/06/06 09:57:39;;;;;;;8.45;4.15;;;23.40;58.00;;;;;;4957329;28;20276;-68
2023/06/06 10:00:15;;;;;;;6.72;3.88;;;23.70;57.20;;;;;;4956961;28;20190;-68
2023/06/06 10:02:45;;;;;;;6.43;4.20;;;23.70;57.40;;;;;;4938371;28;20205;-68
2023/06/06 10:05:13;;;;;;;4.63;3.25;;;23.40;57.90;;;;;;4957166;28;20612;-69
2023/06/06 10:07:41;;;;;;;6.55;3.97;;;23.50;58.30;;;;;;4957393;28;20946;-68
2023/06/06 10:10:10;;;;;;;6.38;3.17;;;23.60;57.10;;;;;;4957543;28;20292;-68
2023/06/06 10:12:36;;;;;;;5.32;3.60;;;23.50;56.90;;;;;;4953088;28;20976;-69
2023/06/06 10:15:03;;;;;;;9.63;3.92;;;23.70;57.30;;;;;;4940265;28;20218;-69
2023/06/06 10:17:30;;;;;;;6.10;3.53;;;24.00;57.10;;;;;;4927925;28;20563;-70
2023/06/06 10:20:03;;;;;;;3.40;3.00;;;23.90;57.40;;;;;;4943350;28;20199;-70
2023/06/06 10:22:29;;;;;;;7.87;3.37;;;23.80;57.60;;;;;;4926748;28;20198;-68
2023/06/06 10:24:57;;;;;;;6.47;3.17;;;24.00;57.40;;;;;;4944030;28;20213;-70
2023/06/06 10:27:27;;;;;;;5.68;4.43;;;23.80;58.20;;;;;;4946880;28;20228;-69
2023/06/06 10:30:09;;;;;;;5.65;3.65;;;23.70;58.00;;;;;;4943941;28;20305;-69
2023/06/06 10:32:50;;;;;;;7.07;4.00;;;23.80;58.80;;;;;;4942801;28;20208;-67
2023/06/06 10:35:17;;;;;;;5.63;4.20;;;23.80;58.90;;;;;;4945329;28;20232;-69
2023/06/06 10:38:03;;;;;;;6.57;4.18;;;23.90;61.00;;;;;;4943527;28;20828;-69
2023/06/06 10:40:58;;;;;;;6.07;3.80;;;24.00;59.60;;;;;;4945926;28;20284;-70
2023/06/06 10:43:35;;;;;;;6.95;3.72;;;24.00;60.10;;;;;;4955657;28;20638;-69
2023/06/06 10:46:02;;;;;;;3.88;3.55;;;24.30;59.30;;;;;;4953809;28;20310;-69
2023/06/06 10:48:54;;;;;;;12.73;3.80;;;24.40;59.20;;;;;;4946592;28;20206;-69
2023/06/06 10:51:31;;;;;;;4.32;3.60;;;24.30;58.20;;;;;;4947958;28;20563;-69
2023/06/06 10:54:20;;;;;;;8.02;3.95;;;24.50;58.90;;;;;;4955417;28;20210;-69
2023/06/06 10:56:55;;;;;;;5.22;4.68;;;24.60;59.40;;;;;;4949965;28;20211;-70
2023/06/06 10:59:28;;;;;;;3.45;3.13;;;24.70;57.80;;;;;;4941402;28;20211;-69
2023/06/06 11:01:55;;;;;;;3.95;3.20;;;24.80;57.30;;;;;;4945605;28;20688;-71
2023/06/06 11:04:27;;;;;;;3.35;3.05;;;25.00;57.20;;;;;;4959383;28;20197;-68
2023/06/06 11:06:58;;;;;;;7.75;3.78;;;25.10;56.60;;;;;;4957706;28;20210;-69
2023/06/06 11:09:33;;;;;;;4.35;3.53;;;24.90;56.70;;;;;;4960409;28;20203;-72
2023/06/06 11:12:13;;;;;;;7.82;3.30;;;25.00;56.70;;;;;;4960555;28;20200;-71
2023/06/06 11:14:57;;;;;;;10.93;3.90;;;25.00;56.40;;;;;;4960078;28;20274;-68
2023/06/06 11:17:29;;;;;;;9.30;4.28;;;24.90;58.40;;;;;;4960638;28;20573;-70
2023/06/06 11:19:55;;;;;;;4.45;2.97;;;24.90;56.50;;;;;;4942731;28;20554;-70
2023/06/06 11:22:24;;;;;;;3.20;2.95;;;24.80;55.30;;;;;;4959252;28;20329;-72
2023/06/06 11:24:50;;;;;;;14.27;5.00;;;24.60;56.10;;;;;;4960100;28;20210;-71
2023/06/06 11:27:17;;;;;;;8.43;3.95;;;24.60;58.90;;;;;;4960448;28;20205;-71
2023/06/06 11:29:43;;;;;;;10.07;4.47;;;24.70;57.50;;;;;;4960349;28;20223;-68
2023/06/06 11:32:10;;;;;;;3.83;3.10;;;24.70;58.00;;;;;;4959778;28;20262;-71
2023/06/06 11:34:38;;;;;;;7.88;3.70;;;24.50;56.70;;;;;;4959649;28;20214;-68
2023/06/06 11:37:04;;;;;;;5.35;3.50;;;24.50;55.50;;;;;;4959374;28;20392;-69
2023/06/06 11:39:30;;;;;;;4.53;3.70;;;24.60;56.10;;;;;;4959760;28;20293;-71
2023/06/06 11:41:56;;;;;;;7.60;4.70;;;24.80;55.40;;;;;;4956064;28;20346;-70
2023/06/06 11:44:31;;;;;;;10.40;3.70;;;24.80;59.70;;;;;;4928397;28;20300;-70
2023/06/06 11:46:56;;;;;;;5.43;3.92;;;24.70;55.80;;;;;;4943408;28;20200;-69
2023/06/06 11:49:22;;;;;;;5.47;3.65;;;24.60;57.00;;;;;;4944415;28;20337;-69
2023/06/06 11:52:01;;;;;;;9.43;4.22;;;24.60;56.40;;;;;;4944640;28;20670;-69
2023/06/06 11:54:29;;;;;;;4.88;3.65;;;24.60;58.40;;;;;;4943546;28;20223;-70
2023/06/06 11:57:03;;;;;;;8.82;4.07;;;24.60;55.90;;;;;;4945838;28;20198;-70
2023/06/06 11:59:34;;;;;;;5.95;3.40;;;24.60;57.50;;;;;;4944867;28;20207;-70
2023/06/06 12:02:00;;;;;;;8.30;3.65;;;24.60;58.00;;;;;;4945507;28;20265;-70
2023/06/06 12:04:28;;;;;;;5.40;4.40;;;24.40;55.80;;;;;;4945501;28;20211;-70
2023/06/06 12:06:56;;;;;;;3.42;3.08;;;24.40;57.70;;;;;;4942591;28;20222;-70
2023/06/06 12:09:23;;;;;;;6.18;3.22;;;24.40;55.60;;;;;;4945812;28;20220;-69
2023/06/06 12:11:54;;;;;;;4.38;3.17;;;24.50;55.20;;;;;;4943734;28;20210;-71
2023/06/06 12:14:21;;;;;;;5.95;3.63;;;24.60;54.60;;;;;;4944629;28;20216;-70
2023/06/06 12:16:47;;;;;;;3.42;3.13;;;24.40;53.90;;;;;;4944723;28;20673;-70
2023/06/06 12:19:17;;;;;;;4.30;3.55;;;24.30;54.60;;;;;;4945125;28;20186;-70
2023/06/06 12:21:51;;;;;;;4.78;3.38;;;24.20;55.00;;;;;;4944160;28;20202;-70
2023/06/06 12:24:21;;;;;;;5.47;3.40;;;24.20;55.90;;;;;;4943025;28;20312;-71
2023/06/06 12:26:53;;;;;;;8.30;3.10;;;24.20;56.10;;;;;;4944762;28;20210;-70
2023/06/06 12:29:20;;;;;;;3.75;3.10;;;24.30;56.50;;;;;;4944233;28;20288;-70
2023/06/06 12:31:48;;;;;;;4.13;3.42;;;24.20;55.90;;;;;;4944763;28;20210;-70
2023/06/06 12:34:14;;;;;;;4.40;3.65;;;24.20;56.00;;;;;;4941495;28;20348;-70
2023/06/06 12:36:41;;;;;;;5.03;3.58;;;24.20;56.70;;;;;;4944892;28;21038;-73
2023/06/06 12:39:11;;;;;;;4.57;3.67;;;24.30;56.60;;;;;;4954646;28;20560;-77
2023/06/06 12:41:41;;;;;;;6.15;3.15;;;24.30;56.20;;;;;;4955317;28;20308;-76
2023/06/06 12:44:11;;;;;;;5.53;3.38;;;24.40;56.50;;;;;;4961403;28;20819;-77
2023/06/06 12:46:38;;;;;;;3.95;3.42;;;24.60;56.00;;;;;;4957094;28;20211;-73
2023/06/06 12:49:04;;;;;;;3.80;3.40;;;24.70;55.50;;;;;;4959393;28;20668;-74